createdAt,value
2018-11-22T12:18:08.537Z,11.30
2018-11-22T12:20:37.067Z,11.40
2018-11-22T12:23:05.822Z,11.40
2018-11-22T12:25:34.369Z,11.30
2018-11-22T12:28:03.211Z,11.50
2018-11-22T12:30:32.825Z,11.60
2018-11-22T12:33:07.650Z,11.50
2018-11-22T12:35:41.465Z,11.30
2018-11-22T12:38:15.352Z,11.00
2018-11-22T12:40:43.900Z,10.80
2018-11-22T12:43:12.309Z,10.90
2018-11-22T12:45:40.941Z,10.90
2018-11-22T12:48:09.485Z,10.60
2018-11-22T12:50:37.960Z,10.20
2018-11-22T12:53:06.576Z,10.00
2018-11-22T12:55:34.998Z,9.90
2018-11-22T12:58:03.533Z,9.60
2018-11-22T13:00:32.083Z,9.50
2018-11-22T13:03:00.635Z,9.50
2018-11-22T13:05:29.078Z,9.50
2018-11-22T13:07:57.497Z,9.40
2018-11-22T13:10:25.903Z,9.30
2018-11-22T13:12:54.474Z,9.20
2018-11-22T13:15:23.053Z,9.30
2018-11-22T13:17:51.650Z,9.20
2018-11-22T13:20:21.183Z,9.00
2018-11-22T13:22:49.592Z,8.90
2018-11-22T13:25:19.743Z,8.90
2018-11-22T13:27:48.595Z,9.20
2018-11-22T13:30:19.007Z,9.20
2018-11-22T13:32:47.952Z,9.10
2018-11-22T13:35:17.309Z,8.90
2018-11-22T13:37:47.239Z,8.80
2018-11-22T13:40:16.010Z,8.50
2018-11-22T13:42:45.515Z,8.30
2018-11-22T13:45:16.458Z,8.30
2018-11-22T13:47:45.855Z,8.20
2018-11-22T13:50:17.019Z,8.20
2018-11-22T13:52:46.607Z,8.10
2018-11-22T13:55:15.680Z,8.10
2018-11-22T13:57:43.879Z,8.10
2018-11-22T14:00:16.254Z,8.10
2018-11-22T14:02:44.939Z,8.00
2018-11-22T14:05:13.402Z,7.90
2018-11-22T14:07:41.870Z,7.80
2018-11-22T14:10:13.533Z,7.70
2018-11-22T14:12:42.227Z,7.40
2018-11-22T14:15:16.091Z,7.30
2018-11-22T14:17:45.046Z,7.20
2018-11-22T14:20:14.940Z,7.20
2018-11-22T14:22:46.381Z,7.20
2018-11-22T14:25:15.618Z,7.20
2018-11-22T14:27:45.024Z,7.10
2018-11-22T14:30:15.187Z,7.10
2018-11-22T14:32:44.428Z,7.00
2018-11-22T14:35:14.123Z,7.00
2018-11-22T14:37:43.139Z,7.00
2018-11-22T14:40:15.104Z,6.90
2018-11-22T14:42:44.198Z,6.80
2018-11-22T14:45:13.683Z,6.80
2018-11-22T14:47:43.101Z,6.70
2018-11-22T14:50:16.484Z,6.60
2018-11-22T14:52:48.048Z,6.60
2018-11-22T14:55:16.496Z,6.60
2018-11-22T14:57:44.900Z,6.50
2018-11-22T15:00:15.155Z,6.50
2018-11-22T15:02:44.897Z,6.50
2018-11-22T15:05:14.149Z,6.50
2018-11-22T15:07:43.139Z,6.50
2018-11-22T15:10:13.273Z,6.50
2018-11-22T15:12:42.830Z,6.40
2018-11-22T15:15:14.456Z,6.50
2018-11-22T15:17:42.939Z,6.40
2018-11-22T15:20:13.429Z,6.40
2018-11-22T15:22:42.644Z,6.40
2018-11-22T15:25:12.822Z,6.30
2018-11-22T15:27:42.964Z,6.30
2018-11-22T15:30:14.233Z,6.40
2018-11-22T15:32:42.690Z,6.30
2018-11-22T15:35:13.827Z,6.20
2018-11-22T15:37:42.442Z,6.20
2018-11-22T15:40:14.102Z,6.30
2018-11-22T15:42:42.959Z,6.20
2018-11-22T15:45:14.148Z,6.10
2018-11-22T15:47:42.819Z,6.10
2018-11-22T15:50:13.658Z,6.10
2018-11-22T15:52:42.654Z,6.10
2018-11-22T15:55:11.859Z,6.00
2018-11-22T15:57:41.105Z,6.00
2018-11-22T16:00:13.139Z,6.00
2018-11-22T16:02:41.889Z,5.90
2018-11-22T16:05:11.495Z,5.80
2018-11-22T16:07:40.297Z,5.80
2018-11-22T16:10:14.347Z,5.70
2018-11-22T16:12:43.003Z,5.70
2018-11-22T16:15:15.659Z,5.70
2018-11-22T16:17:44.162Z,5.60
2018-11-22T16:20:12.686Z,5.60
2018-11-22T16:22:41.516Z,5.60
2018-11-22T16:25:11.455Z,5.50
2018-11-22T16:27:40.244Z,5.50
2018-11-22T16:30:13.297Z,5.50
2018-11-22T16:32:41.924Z,5.50
2018-11-22T16:35:12.239Z,5.50
2018-11-22T16:37:43.755Z,5.50
2018-11-22T16:40:16.027Z,5.40
2018-11-22T16:42:45.663Z,5.30
2018-11-22T16:45:20.338Z,5.30
2018-11-22T16:47:48.831Z,5.20
2018-11-22T16:50:18.803Z,5.20
2018-11-22T16:52:47.362Z,5.20
2018-11-22T16:55:16.166Z,5.20
2018-11-22T16:57:45.889Z,5.20
2018-11-22T17:00:18.991Z,5.10
2018-11-22T17:02:48.877Z,5.10
2018-11-22T17:05:17.671Z,5.00
2018-11-22T17:07:46.665Z,5.10
2018-11-22T17:10:16.598Z,4.90
2018-11-22T17:12:45.996Z,4.90
2018-11-22T17:15:15.796Z,4.90
2018-11-22T17:17:44.911Z,4.80
2018-11-22T17:20:14.630Z,4.70
2018-11-22T17:22:43.814Z,4.60
2018-11-22T17:25:15.355Z,4.60
2018-11-22T17:27:44.455Z,4.60
2018-11-22T17:30:15.406Z,4.50
2018-11-22T17:32:44.383Z,4.50
2018-11-22T17:35:15.644Z,4.50
2018-11-22T17:37:44.414Z,4.40
2018-11-22T17:40:20.326Z,4.30
2018-11-22T17:42:48.898Z,4.40
2018-11-22T17:45:21.588Z,4.40
2018-11-22T17:47:50.559Z,4.40
2018-11-22T17:50:19.755Z,4.40
2018-11-22T17:52:48.200Z,4.30
2018-11-22T17:55:20.425Z,4.20
2018-11-22T17:57:49.530Z,4.10
2018-11-22T18:00:20.471Z,4.20
2018-11-22T18:02:50.296Z,4.20
2018-11-22T18:05:18.909Z,4.20
2018-11-22T18:07:47.514Z,4.20
2018-11-22T18:10:18.806Z,4.20
2018-11-22T18:12:48.290Z,4.20
2018-11-22T18:15:18.584Z,4.20
2018-11-22T18:17:47.337Z,4.20
2018-11-22T18:20:18.531Z,4.20
2018-11-22T18:22:47.955Z,4.20
2018-11-22T18:25:17.978Z,4.20
2018-11-22T18:27:46.682Z,4.20
2018-11-22T18:30:18.811Z,4.20
2018-11-22T18:32:49.271Z,4.20
2018-11-22T18:35:17.944Z,4.20
2018-11-22T18:37:46.820Z,4.30
2018-11-22T18:40:20.240Z,4.20
2018-11-22T18:42:50.063Z,4.20
2018-11-22T18:45:24.153Z,4.10
2018-11-22T18:47:53.619Z,4.20
2018-11-22T18:50:23.948Z,4.20
2018-11-22T18:52:52.923Z,4.30
2018-11-22T18:55:22.238Z,4.30
2018-11-22T18:57:51.263Z,4.40
2018-11-22T19:00:26.358Z,4.40
2018-11-22T19:02:56.873Z,4.50
2018-11-22T19:05:26.004Z,4.60
2018-11-22T19:07:55.849Z,4.70
2018-11-22T19:10:26.310Z,4.80
2018-11-22T19:12:58.626Z,4.90
2018-11-22T19:15:29.201Z,5.00
2018-11-22T19:17:59.853Z,5.00
2018-11-22T19:20:32.976Z,5.00
2018-11-22T19:25:30.424Z,5.00
2018-11-22T19:28:01.264Z,5.10
2018-11-22T19:30:37.284Z,5.00
2018-11-22T19:33:04.167Z,5.00
2018-11-22T19:35:35.880Z,5.00
2018-11-22T19:38:05.388Z,5.00
2018-11-22T19:40:37.017Z,5.00
2018-11-22T19:43:07.456Z,5.10
2018-11-22T19:45:40.145Z,5.00
2018-11-22T19:48:10.507Z,5.00
2018-11-22T19:50:39.676Z,5.00
2018-11-22T19:53:10.849Z,5.10
2018-11-22T19:55:41.735Z,5.00
2018-11-22T19:58:12.772Z,5.10
2018-11-22T20:00:42.302Z,5.10
2018-11-22T20:03:12.241Z,5.10
2018-11-22T20:05:42.325Z,5.10
2018-11-22T20:08:14.256Z,5.10
2018-11-22T20:10:44.631Z,5.10
2018-11-22T20:13:14.053Z,5.00
2018-11-22T20:15:44.925Z,5.00
2018-11-22T20:18:14.307Z,5.00
2018-11-22T20:20:49.606Z,5.10
2018-11-22T20:23:13.380Z,5.10
2018-11-22T20:25:43.015Z,5.10
2018-11-22T20:28:12.385Z,5.10
2018-11-22T20:30:43.115Z,5.10
2018-11-22T20:33:12.558Z,5.10
2018-11-22T20:35:42.676Z,5.00
2018-11-22T20:38:12.678Z,5.10
2018-11-22T20:40:41.979Z,5.10
2018-11-22T20:43:12.442Z,5.10
2018-11-22T20:45:41.660Z,5.10
2018-11-22T20:48:12.376Z,5.10
2018-11-22T20:50:42.109Z,5.10
2018-11-22T20:53:11.686Z,5.10
2018-11-22T20:55:41.524Z,5.10
2018-11-22T20:58:10.980Z,5.10
2018-11-22T21:00:42.352Z,5.10
2018-11-22T21:03:11.910Z,5.10
2018-11-22T21:05:41.449Z,5.00
2018-11-22T21:08:11.246Z,5.10
2018-11-22T21:10:40.416Z,5.10
2018-11-22T21:13:11.045Z,5.10
2018-11-22T21:15:40.281Z,5.10
2018-11-22T21:18:09.883Z,5.10
2018-11-22T21:20:40.493Z,5.20
2018-11-22T21:23:09.791Z,5.20
2018-11-22T21:25:39.918Z,5.20
2018-11-22T21:28:09.749Z,5.20
2018-11-22T21:30:39.784Z,5.20
2018-11-22T21:33:09.063Z,5.10
2018-11-22T21:35:38.191Z,5.10
2018-11-22T21:38:07.986Z,5.10
2018-11-22T21:40:37.261Z,5.10
2018-11-22T21:43:06.206Z,5.00
2018-11-22T21:45:35.585Z,5.00
2018-11-22T21:48:04.457Z,5.10
2018-11-22T21:50:33.896Z,5.10
2018-11-22T21:53:02.382Z,5.10
2018-11-22T21:55:31.218Z,5.10
2018-11-22T21:58:00.981Z,5.00
2018-11-22T22:00:34.473Z,5.00
2018-11-22T22:03:04.631Z,5.10
2018-11-22T22:05:33.159Z,5.10
2018-11-22T22:08:01.663Z,5.00
2018-11-22T22:10:30.226Z,5.00
2018-11-22T22:12:59.057Z,5.00
2018-11-22T22:15:28.774Z,5.00
2018-11-22T22:17:57.260Z,5.00
2018-11-22T22:20:27.259Z,5.00
2018-11-22T22:22:55.691Z,5.10
2018-11-22T22:25:25.048Z,5.00
2018-11-22T22:27:54.003Z,5.00
2018-11-22T22:30:23.864Z,5.00
2018-11-22T22:32:54.153Z,5.00
2018-11-22T22:35:22.572Z,4.90
2018-11-22T22:37:51.364Z,5.00
2018-11-22T22:40:22.203Z,5.00
2018-11-22T22:42:51.649Z,5.10
2018-11-22T22:45:21.103Z,5.00
2018-11-22T22:47:50.280Z,5.00
2018-11-22T22:50:21.855Z,5.00
2018-11-22T22:52:51.652Z,5.00
2018-11-22T22:55:20.250Z,5.00
2018-11-22T22:57:48.699Z,5.00
2018-11-22T23:00:24.936Z,4.90
2018-11-22T23:02:54.689Z,5.00
2018-11-22T23:05:23.799Z,5.00
2018-11-22T23:07:52.502Z,5.00
2018-11-22T23:10:21.478Z,5.00
2018-11-22T23:12:49.940Z,4.90
2018-11-22T23:15:19.868Z,5.00
2018-11-22T23:17:48.413Z,5.00
2018-11-22T23:20:20.019Z,5.00
2018-11-22T23:22:48.918Z,5.00
2018-11-22T23:25:18.518Z,5.00
2018-11-22T23:27:47.004Z,4.90
2018-11-22T23:30:23.970Z,4.90
2018-11-22T23:32:53.692Z,4.90
2018-11-22T23:35:22.518Z,4.90
2018-11-22T23:37:51.566Z,4.80
2018-11-22T23:40:21.257Z,4.80
2018-11-22T23:42:49.703Z,4.90
2018-11-22T23:45:19.378Z,4.90
2018-11-22T23:47:48.270Z,4.80
2018-11-22T23:50:21.158Z,4.80
2018-11-22T23:52:51.116Z,4.90
2018-11-22T23:55:19.703Z,4.80
2018-11-22T23:57:48.243Z,4.80
